Time,TemperatureF,DewpointF,PressureIn,WindDirection,WindDirectionDegrees,WindSpeedMPH,WindSpeedGustMPH,Humidity,HourlyPrecipIn,Conditions,Clouds,dailyrainin,SoftwareType,DateUTC
2013-07-27 00:02:00,64.7,55.0,30.14,West,281,0.0,-999.0,72,-99.99,,,0.00,weatherlink.com 1.10,2013-07-27 08:02:00,
2013-07-27 00:17:00,64.2,55.0,30.14,West,281,0.0,-999.0,73,-99.99,,,0.00,weatherlink.com 1.10,2013-07-27 08:17:00,
2013-07-27 00:32:00,63.5,55.0,30.15,West,281,0.0,-999.0,73,-99.99,,,0.00,weatherlink.com 1.10,2013-07-27 08:32:00,
2013-07-27 00:47:00,63.0,55.0,30.15,West,281,0.0,-999.0,75,-99.99,,,0.00,weatherlink.com 1.10,2013-07-27 08:47:00,
2013-07-27 01:02:00,62.7,55.0,30.15,West,281,0.0,-999.0,77,-99.99,,,0.00,weatherlink.com 1.10,2013-07-27 09:02:00,
2013-07-27 01:17:00,62.3,55.0,30.15,West,281,0.0,-999.0,78,-99.99,,,0.00,weatherlink.com 1.10,2013-07-27 09:17:00,
2013-07-27 01:32:00,61.6,55.0,30.16,West,281,0.0,-999.0,80,-99.99,,,0.00,weatherlink.com 1.10,2013-07-27 09:32:00,
2013-07-27 01:47:00,60.9,56.0,30.16,West,281,0.0,-999.0,84,-99.99,,,0.00,weatherlink.com 1.10,2013-07-27 09:47:00,
2013-07-27 02:02:00,60.9,56.0,30.16,West,281,0.0,-999.0,84,-99.99,,,0.00,weatherlink.com 1.10,2013-07-27 10:02:00,
2013-07-27 02:17:00,60.3,56.0,30.16,West,281,0.0,-999.0,85,-99.99,,,0.00,weatherlink.com 1.10,2013-07-27 10:17:00,
2013-07-27 02:32:00,59.9,55.0,30.16,West,281,0.0,-999.0,85,-99.99,,,0.00,weatherlink.com 1.10,2013-07-27 10:32:00,
2013-07-27 02:47:00,59.3,55.0,30.17,West,281,0.0,-999.0,85,-99.99,,,0.00,weatherlink.com 1.10,2013-07-27 10:47:00,
2013-07-27 03:02:00,58.9,55.0,30.17,West,281,0.0,-999.0,86,-99.99,,,0.00,weatherlink.com 1.10,2013-07-27 11:02:00,
2013-07-27 03:17:00,58.3,54.0,30.17,West,281,0.0,-999.0,86,-99.99,,,0.00,weatherlink.com 1.10,2013-07-27 11:17:00,
2013-07-27 03:32:00,57.8,54.0,30.17,West,281,0.0,-999.0,87,-99.99,,,0.00,weatherlink.com 1.10,2013-07-27 11:32:00,
2013-07-27 03:47:00,57.3,54.0,30.18,West,281,0.0,-999.0,88,-99.99,,,0.00,weatherlink.com 1.10,2013-07-27 11:47:00,
2013-07-27 04:02:00,56.8,53.0,30.18,West,281,0.0,-999.0,88,-99.99,,,0.00,weatherlink.com 1.10,2013-07-27 12:02:00,
2013-07-27 04:17:00,56.3,53.0,30.18,West,281,0.0,-999.0,89,-99.99,,,0.00,weatherlink.com 1.10,2013-07-27 12:17:00,
2013-07-27 04:32:00,55.9,53.0,30.18,West,281,0.0,-999.0,89,-99.99,,,0.00,weatherlink.com 1.10,2013-07-27 12:32:00,
2013-07-27 04:47:00,55.6,53.0,30.18,West,281,0.0,-999.0,90,-99.99,,,0.00,weatherlink.com 1.10,2013-07-27 12:47:00,
2013-07-27 05:02:00,55.3,53.0,30.18,West,281,0.0,-999.0,90,-99.99,,,0.00,weatherlink.com 1.10,2013-07-27 13:02:00,
2013-07-27 05:17:00,55.3,53.0,30.18,West,281,0.0,-999.0,91,-99.99,,,0.00,weatherlink.com 1.10,2013-07-27 13:17:00,
2013-07-27 05:32:00,55.4,53.0,30.19,West,281,0.0,-999.0,90,-99.99,,,0.00,weatherlink.com 1.10,2013-07-27 13:32:00,
2013-07-27 05:47:00,55.7,53.0,30.19,West,281,0.0,-999.0,89,-99.99,,,0.00,weatherlink.com 1.10,2013-07-27 13:47:00,
2013-07-27 06:02:00,56.7,53.0,30.19,West,281,0.0,-999.0,87,-99.99,,,0.00,weatherlink.com 1.10,2013-07-27 14:02:00,
2013-07-27 06:17:00,58.4,54.0,30.19,West,281,0.0,-999.0,84,-99.99,,,0.00,weatherlink.com 1.10,2013-07-27 14:17:00,
2013-07-27 06:32:00,59.1,54.0,30.20,West,281,0.0,-999.0,82,-99.99,,,0.00,weatherlink.com 1.10,2013-07-27 14:32:00,
2013-07-27 06:47:00,59.6,54.0,30.20,West,281,0.0,-999.0,82,-99.99,,,0.00,weatherlink.com 1.10,2013-07-27 14:47:00,
2013-07-27 07:02:00,59.5,54.0,30.20,West,281,0.0,-999.0,82,-99.99,,,0.00,weatherlink.com 1.10,2013-07-27 15:02:00,
2013-07-27 07:32:00,59.9,54.0,30.20,West,281,0.0,-999.0,81,-99.99,,,0.00,weatherlink.com 1.10,2013-07-27 15:32:00,
2013-07-27 07:47:00,59.7,54.0,30.20,WNW,289,0.0,-999.0,81,-99.99,,,0.00,weatherlink.com 1.10,2013-07-27 15:47:00,
2013-07-27 08:02:00,60.0,54.0,30.21,WNW,292,0.0,-999.0,81,-99.99,,,0.00,weatherlink.com 1.10,2013-07-27 16:02:00,
2013-07-27 08:17:00,60.6,54.0,30.21,WNW,292,0.0,-999.0,80,-99.99,,,0.00,weatherlink.com 1.10,2013-07-27 16:17:00,
2013-07-27 08:32:00,61.7,55.0,30.21,WNW,292,0.0,-999.0,79,-99.99,,,0.00,weatherlink.com 1.10,2013-07-27 16:32:00,
2013-07-27 08:47:00,62.6,56.0,30.21,WNW,292,0.0,-999.0,79,-99.99,,,0.00,weatherlink.com 1.10,2013-07-27 16:47:00,
2013-07-27 09:02:00,63.3,56.0,30.21,WNW,292,0.0,-999.0,78,-99.99,,,0.00,weatherlink.com 1.10,2013-07-27 17:02:00,
2013-07-27 09:17:00,64.1,56.0,30.21,WNW,292,0.0,-999.0,76,-99.99,,,0.00,weatherlink.com 1.10,2013-07-27 17:17:00,
2013-07-27 09:32:00,64.9,57.0,30.21,WNW,292,0.0,-999.0,75,-99.99,,,0.00,weatherlink.com 1.10,2013-07-27 17:32:00,
2013-07-27 09:47:00,65.7,57.0,30.21,WNW,292,0.0,-999.0,74,-99.99,,,0.00,weatherlink.com 1.10,2013-07-27 17:47:00,
2013-07-27 10:02:00,67.7,58.0,30.21,WNW,294,0.0,-999.0,70,-99.99,,,0.00,weatherlink.com 1.10,2013-07-27 18:02:00,
2013-07-27 10:17:00,68.6,58.0,30.21,WNW,302,0.0,-999.0,70,-99.99,,,0.00,weatherlink.com 1.10,2013-07-27 18:17:00,
2013-07-27 10:32:00,69.2,58.0,30.21,WNW,302,0.0,-999.0,67,-99.99,,,0.00,weatherlink.com 1.10,2013-07-27 18:32:00,
2013-07-27 10:47:00,69.7,57.0,30.21,WSW,242,0.0,-999.0,65,-99.99,,,0.00,weatherlink.com 1.10,2013-07-27 18:47:00,
2013-07-27 11:02:00,69.9,58.0,30.21,West,267,0.0,-999.0,65,-99.99,,,0.00,weatherlink.com 1.10,2013-07-27 19:02:00,
2013-07-27 11:17:00,70.4,58.0,30.21,West,267,0.0,-999.0,64,-99.99,,,0.00,weatherlink.com 1.10,2013-07-27 19:17:00,
2013-07-27 11:32:00,71.2,57.0,30.21,West,267,0.0,-999.0,62,-99.99,,,0.00,weatherlink.com 1.10,2013-07-27 19:32:00,
2013-07-27 11:47:00,72.1,58.0,30.21,NNW,337,0.0,-999.0,62,-99.99,,,0.00,weatherlink.com 1.10,2013-07-27 19:47:00,
2013-07-27 12:02:00,73.4,59.0,30.20,ESE,113,0.0,-999.0,60,-99.99,,,0.00,weatherlink.com 1.10,2013-07-27 20:02:00,
2013-07-27 12:17:00,74.0,58.0,30.21,SSW,193,1.0,-999.0,58,-99.99,,,0.00,weatherlink.com 1.10,2013-07-27 20:17:00,
2013-07-27 12:32:00,73.4,58.0,30.21,WNW,290,0.0,-999.0,58,-99.99,,,0.00,weatherlink.com 1.10,2013-07-27 20:32:00,
2013-07-27 12:47:00,73.3,58.0,30.20,WNW,298,0.0,-999.0,59,-99.99,,,0.00,weatherlink.com 1.10,2013-07-27 20:47:00,
2013-07-27 13:02:00,73.8,58.0,30.20,NW,307,0.0,-999.0,59,-99.99,,,0.00,weatherlink.com 1.10,2013-07-27 21:02:00,
2013-07-27 13:17:00,75.3,58.0,30.20,SW,216,0.0,-999.0,55,-99.99,,,0.00,weatherlink.com 1.10,2013-07-27 21:17:00,
2013-07-27 13:32:00,76.2,58.0,30.20,SSW,202,0.0,-999.0,53,-99.99,,,0.00,weatherlink.com 1.10,2013-07-27 21:32:00,
2013-07-27 13:47:00,75.7,57.0,30.20,SE,143,0.0,-999.0,53,-99.99,,,0.00,weatherlink.com 1.10,2013-07-27 21:47:00,
2013-07-27 14:02:00,74.9,57.0,30.19,WNW,296,4.0,-999.0,54,-99.99,,,0.00,weatherlink.com 1.10,2013-07-27 22:02:00,
2013-07-27 14:17:00,74.8,57.0,30.19,WNW,296,0.0,-999.0,55,-99.99,,,0.00,weatherlink.com 1.10,2013-07-27 22:17:00,
2013-07-27 14:32:00,76.0,59.0,30.19,WNW,293,0.0,-999.0,55,-99.99,,,0.00,weatherlink.com 1.10,2013-07-27 22:32:00,
2013-07-27 14:47:00,76.4,57.0,30.19,SW,221,0.0,-999.0,51,-99.99,,,0.00,weatherlink.com 1.10,2013-07-27 22:47:00,
2013-07-27 15:02:00,76.9,57.0,30.19,WNW,296,1.0,-999.0,50,-99.99,,,0.00,weatherlink.com 1.10,2013-07-27 23:02:00,
2013-07-27 15:17:00,77.0,57.0,30.18,NW,312,2.0,-999.0,50,-99.99,,,0.00,weatherlink.com 1.10,2013-07-27 23:17:00,
2013-07-27 15:32:00,77.3,57.0,30.18,SSW,205,0.0,-999.0,50,-99.99,,,0.00,weatherlink.com 1.10,2013-07-27 23:32:00,
2013-07-27 15:47:00,78.0,58.0,30.18,WNW,290,2.0,-999.0,50,-99.99,,,0.00,weatherlink.com 1.10,2013-07-27 23:47:00,
2013-07-27 16:02:00,78.0,57.0,30.18,SW,232,0.0,-999.0,49,-99.99,,,0.00,weatherlink.com 1.10,2013-07-28 00:02:00,
2013-07-27 16:17:00,77.8,58.0,30.18,NNW,337,0.0,-999.0,50,-99.99,,,0.00,weatherlink.com 1.10,2013-07-28 00:17:00,
2013-07-27 16:32:00,78.7,58.0,30.18,South,173,0.0,-999.0,49,-99.99,,,0.00,weatherlink.com 1.10,2013-07-28 00:32:00,
2013-07-27 16:47:00,79.7,58.0,30.18,West,278,1.0,-999.0,47,-99.99,,,0.00,weatherlink.com 1.10,2013-07-28 00:47:00,
2013-07-27 17:02:00,80.3,58.0,30.17,NW,318,2.0,-999.0,46,-99.99,,,0.00,weatherlink.com 1.10,2013-07-28 01:02:00,
2013-07-27 17:17:00,79.0,56.0,30.17,NW,309,0.0,-999.0,45,-99.99,,,0.00,weatherlink.com 1.10,2013-07-28 01:17:00,
2013-07-27 17:32:00,80.3,58.0,30.17,NW,309,0.0,-999.0,46,-99.99,,,0.00,weatherlink.com 1.10,2013-07-28 01:32:00,
2013-07-27 17:47:00,81.9,57.0,30.17,West,273,0.0,-999.0,43,-99.99,,,0.00,weatherlink.com 1.10,2013-07-28 01:47:00,
2013-07-27 18:02:00,82.9,58.0,30.17,West,262,1.0,-999.0,43,-99.99,,,0.00,weatherlink.com 1.10,2013-07-28 02:02:00,
2013-07-27 18:17:00,82.7,57.0,30.16,SSW,209,0.0,-999.0,42,-99.99,,,0.00,weatherlink.com 1.10,2013-07-28 02:17:00,
2013-07-27 18:32:00,81.2,57.0,30.16,NW,309,0.0,-999.0,44,-99.99,,,0.00,weatherlink.com 1.10,2013-07-28 02:32:00,
2013-07-27 18:47:00,81.4,58.0,30.16,NW,309,0.0,-999.0,45,-99.99,,,0.00,weatherlink.com 1.10,2013-07-28 02:47:00,
2013-07-27 19:02:00,80.9,57.0,30.16,NW,309,0.0,-999.0,44,-99.99,,,0.00,weatherlink.com 1.10,2013-07-28 03:02:00,
2013-07-27 19:17:00,79.7,58.0,30.16,WNW,294,0.0,-999.0,47,-99.99,,,0.00,weatherlink.com 1.10,2013-07-28 03:17:00,
2013-07-27 19:32:00,79.0,56.0,30.16,WNW,285,0.0,-999.0,45,-99.99,,,0.00,weatherlink.com 1.10,2013-07-28 03:32:00,
2013-07-27 19:47:00,78.7,56.0,30.16,WNW,288,0.0,-999.0,46,-99.99,,,0.00,weatherlink.com 1.10,2013-07-28 03:47:00,
2013-07-27 20:02:00,78.3,56.0,30.16,West,273,0.0,-999.0,47,-99.99,,,0.00,weatherlink.com 1.10,2013-07-28 04:02:00,
2013-07-27 20:17:00,77.6,57.0,30.16,SW,227,0.0,-999.0,49,-99.99,,,0.00,weatherlink.com 1.10,2013-07-28 04:17:00,
2013-07-27 20:32:00,77.3,57.0,30.16,WNW,300,0.0,-999.0,49,-99.99,,,0.00,weatherlink.com 1.10,2013-07-28 04:32:00,
2013-07-27 20:47:00,77.2,58.0,30.16,WNW,301,0.0,-999.0,51,-99.99,,,0.00,weatherlink.com 1.10,2013-07-28 04:47:00,
2013-07-27 21:02:00,77.6,57.0,30.16,WNW,301,0.0,-999.0,50,-99.99,,,0.00,weatherlink.com 1.10,2013-07-28 05:02:00,
2013-07-27 21:17:00,76.8,58.0,30.16,WNW,301,0.0,-999.0,52,-99.99,,,0.00,weatherlink.com 1.10,2013-07-28 05:17:00,
2013-07-27 21:32:00,76.3,58.0,30.16,WNW,301,0.0,-999.0,53,-99.99,,,0.00,weatherlink.com 1.10,2013-07-28 05:32:00,
2013-07-27 21:47:00,77.3,58.0,30.16,WNW,301,0.0,-999.0,52,-99.99,,,0.00,weatherlink.com 1.10,2013-07-28 05:47:00,
2013-07-27 22:02:00,77.4,58.0,30.16,WNW,301,0.0,-999.0,52,-99.99,,,0.00,weatherlink.com 1.10,2013-07-28 06:02:00,
2013-07-27 22:17:00,76.8,60.0,30.16,WNW,301,0.0,-999.0,56,-99.99,,,0.00,weatherlink.com 1.10,2013-07-28 06:17:00,
2013-07-27 22:32:00,75.5,59.0,30.16,WNW,301,0.0,-999.0,57,-99.99,,,0.00,weatherlink.com 1.10,2013-07-28 06:32:00,
2013-07-27 22:47:00,73.9,58.0,30.16,WNW,301,0.0,-999.0,58,-99.99,,,0.00,weatherlink.com 1.10,2013-07-28 06:47:00,
2013-07-27 23:02:00,72.2,57.0,30.16,WNW,301,0.0,-999.0,59,-99.99,,,0.00,weatherlink.com 1.10,2013-07-28 07:02:00,
2013-07-27 23:17:00,70.9,57.0,30.16,WNW,301,0.0,-999.0,61,-99.99,,,0.00,weatherlink.com 1.10,2013-07-28 07:17:00,
2013-07-27 23:32:00,69.6,56.0,30.16,WNW,301,0.0,-999.0,63,-99.99,,,0.00,weatherlink.com 1.10,2013-07-28 07:32:00,
2013-07-27 23:47:00,68.6,56.0,30.16,WNW,301,0.0,-999.0,65,-99.99,,,0.00,weatherlink.com 1.10,2013-07-28 07:47:00,